createdAt,value
2016-05-31T00:00:41.031Z,998.22
2016-05-31T00:01:41.017Z,998.18
2016-05-31T00:02:40.989Z,998.26
2016-05-31T00:03:40.977Z,998.22
2016-05-31T00:04:40.947Z,998.22
2016-05-31T00:05:40.935Z,998.27
2016-05-31T00:06:40.906Z,998.25
2016-05-31T00:07:41.190Z,998.28
2016-05-31T00:08:40.865Z,998.24
2016-05-31T00:09:40.852Z,998.3
2016-05-31T00:10:40.824Z,998.29
2016-05-31T00:11:40.810Z,998.29
2016-05-31T00:12:40.782Z,998.34
2016-05-31T00:13:40.768Z,998.36
2016-05-31T00:14:40.756Z,998.36
2016-05-31T00:15:40.727Z,998.36
2016-05-31T00:16:40.715Z,998.38
2016-05-31T00:17:40.685Z,998.39
2016-05-31T00:18:40.656Z,998.42
2016-05-31T00:19:40.645Z,998.4
2016-05-31T00:20:40.632Z,998.39
2016-05-31T00:21:40.603Z,998.41
2016-05-31T00:22:40.589Z,998.43
2016-05-31T00:23:40.561Z,998.38
2016-05-31T00:24:40.547Z,998.37
2016-05-31T00:25:40.520Z,998.41
2016-05-31T00:26:40.506Z,998.35
2016-05-31T00:27:40.478Z,998.42
2016-05-31T00:28:40.464Z,998.39
2016-05-31T00:29:40.437Z,998.4
2016-05-31T00:30:40.424Z,998.41
2016-05-31T00:31:40.395Z,998.37
2016-05-31T00:32:40.382Z,998.41
2016-05-31T00:33:40.353Z,998.42
2016-05-31T00:34:40.341Z,998.41
2016-05-31T00:35:40.313Z,998.38
2016-05-31T00:36:40.299Z,998.36
2016-05-31T00:37:40.271Z,998.32
2016-05-31T00:38:40.257Z,998.37
2016-05-31T00:39:40.245Z,998.36
2016-05-31T00:40:40.216Z,998.4
2016-05-31T00:41:40.187Z,998.38
2016-05-31T00:42:40.174Z,998.42
2016-05-31T00:43:40.162Z,998.42
2016-05-31T00:44:40.133Z,998.43
2016-05-31T00:45:40.120Z,998.45
2016-05-31T00:46:40.092Z,998.44
2016-05-31T00:47:40.079Z,998.43
2016-05-31T00:48:40.051Z,998.44
2016-05-31T00:49:40.038Z,998.42
2016-05-31T00:50:40.009Z,998.46
2016-05-31T00:51:39.995Z,998.43
2016-05-31T00:52:39.968Z,998.45
2016-05-31T00:53:39.954Z,998.47
2016-05-31T00:54:39.926Z,998.51
2016-05-31T00:55:39.912Z,998.49
2016-05-31T00:56:39.884Z,998.51
2016-05-31T00:57:39.887Z,998.53
2016-05-31T00:58:39.858Z,998.58
2016-05-31T00:59:39.830Z,998.54
2016-05-31T01:00:39.801Z,998.56
2016-05-31T01:01:39.788Z,998.58
2016-05-31T01:02:39.760Z,998.52
2016-05-31T01:03:39.731Z,998.52
2016-05-31T01:04:39.719Z,998.51
2016-05-31T01:05:39.705Z,998.5
2016-05-31T01:06:39.677Z,998.52
2016-05-31T01:07:39.664Z,998.49
2016-05-31T01:08:39.635Z,998.52
2016-05-31T01:09:39.607Z,998.55
2016-05-31T01:10:39.594Z,998.63
2016-05-31T01:11:39.565Z,998.59
2016-05-31T01:12:39.552Z,998.65
2016-05-31T01:13:39.524Z,998.63
2016-05-31T01:14:39.510Z,998.62
2016-05-31T01:15:39.498Z,998.63
2016-05-31T01:16:39.469Z,998.59
2016-05-31T01:17:39.440Z,998.63
2016-05-31T01:18:39.428Z,998.67
2016-05-31T01:19:39.415Z,998.64
2016-05-31T01:20:39.386Z,998.63
2016-05-31T01:21:39.357Z,998.66
2016-05-31T01:22:39.517Z,998.65
2016-05-31T01:23:39.316Z,998.68
2016-05-31T01:24:39.304Z,998.66
2016-05-31T01:25:39.368Z,998.65
2016-05-31T01:26:39.262Z,998.67
2016-05-31T01:27:39.233Z,998.7
2016-05-31T01:28:39.220Z,998.66
2016-05-31T01:29:39.192Z,998.7
2016-05-31T01:30:39.179Z,998.66
2016-05-31T01:31:39.150Z,998.68
2016-05-31T01:32:39.137Z,998.7
2016-05-31T01:33:39.108Z,998.69
2016-05-31T01:34:39.097Z,998.69
2016-05-31T01:35:39.067Z,998.73
2016-05-31T01:36:39.038Z,998.73
2016-05-31T01:37:39.042Z,998.7
2016-05-31T01:38:39.138Z,998.75
2016-05-31T01:39:38.985Z,998.74
2016-05-31T01:40:38.971Z,998.76
2016-05-31T01:41:38.943Z,998.81
2016-05-31T01:42:38.913Z,998.81
2016-05-31T01:43:38.901Z,998.85
2016-05-31T01:44:38.873Z,998.86
2016-05-31T01:45:38.860Z,998.82
2016-05-31T01:46:38.846Z,998.83
2016-05-31T01:47:38.818Z,998.82
2016-05-31T01:48:38.790Z,998.82
2016-05-31T01:49:38.777Z,998.83
2016-05-31T01:50:38.748Z,998.79
2016-05-31T01:51:38.735Z,998.81
2016-05-31T01:52:38.723Z,998.83
2016-05-31T01:53:38.693Z,998.82
2016-05-31T01:54:38.665Z,998.84
2016-05-31T01:55:38.637Z,998.8
2016-05-31T01:56:38.624Z,998.85
2016-05-31T01:57:38.611Z,998.84
2016-05-31T01:58:38.582Z,998.83
2016-05-31T01:59:38.569Z,998.8
2016-05-31T02:00:38.541Z,998.84
2016-05-31T02:01:38.528Z,998.84
2016-05-31T02:02:38.500Z,998.84
2016-05-31T02:03:38.470Z,998.79
2016-05-31T02:04:38.458Z,998.81
2016-05-31T02:05:38.429Z,998.82
2016-05-31T02:06:38.417Z,998.76
2016-05-31T02:07:38.591Z,998.83
2016-05-31T02:08:38.374Z,998.83
2016-05-31T02:09:38.346Z,998.81
2016-05-31T02:10:38.318Z,998.83
2016-05-31T02:11:38.305Z,998.84
2016-05-31T02:12:38.277Z,998.84
2016-05-31T02:13:38.263Z,998.85
2016-05-31T02:14:38.235Z,998.88
2016-05-31T02:15:38.238Z,998.84
2016-05-31T02:16:38.193Z,998.86
2016-05-31T02:17:38.180Z,998.89
2016-05-31T02:18:38.152Z,998.88
2016-05-31T02:19:38.139Z,998.89
2016-05-31T02:20:38.110Z,998.91
2016-05-31T02:21:38.098Z,998.9
2016-05-31T02:22:38.068Z,998.9
2016-05-31T02:23:38.040Z,998.92
2016-05-31T02:24:38.027Z,998.93
2016-05-31T02:25:37.999Z,998.93
2016-05-31T02:26:37.987Z,998.89
2016-05-31T02:27:37.973Z,998.87
2016-05-31T02:28:37.945Z,998.91
2016-05-31T02:29:37.916Z,998.88
2016-05-31T02:30:37.903Z,998.91
2016-05-31T02:31:37.875Z,998.9
2016-05-31T02:32:37.861Z,998.92
2016-05-31T02:33:37.833Z,998.89
2016-05-31T02:34:37.820Z,998.89
2016-05-31T02:35:37.792Z,998.93
2016-05-31T02:36:37.778Z,998.91
2016-05-31T02:37:37.750Z,998.93
2016-05-31T02:38:37.721Z,998.99
2016-05-31T02:39:37.708Z,998.96
2016-05-31T02:40:37.680Z,998.98
2016-05-31T02:41:37.666Z,999.02
2016-05-31T02:42:37.654Z,999.01
2016-05-31T02:43:37.625Z,999.02
2016-05-31T02:44:37.597Z,999.06
2016-05-31T02:45:37.583Z,999.06
2016-05-31T02:46:37.555Z,999.04
2016-05-31T02:47:37.542Z,999.08
2016-05-31T02:48:37.513Z,999.07
2016-05-31T02:49:37.485Z,999.08
2016-05-31T02:50:37.472Z,999.04
2016-05-31T02:51:37.444Z,999.1
2016-05-31T02:52:37.431Z,999.14
2016-05-31T02:53:37.496Z,999.12
2016-05-31T02:54:37.389Z,999.15
2016-05-31T02:55:37.360Z,999.14
2016-05-31T02:56:37.348Z,999.2
2016-05-31T02:57:37.320Z,999.18
2016-05-31T02:58:37.306Z,999.24
2016-05-31T02:59:37.278Z,999.27
2016-05-31T03:00:37.264Z,999.25
2016-05-31T03:01:37.237Z,999.24
2016-05-31T03:02:37.208Z,999.24
2016-05-31T03:03:37.195Z,999.25
2016-05-31T03:04:37.166Z,999.35
2016-05-31T03:05:37.153Z,999.32
2016-05-31T03:06:37.125Z,999.34
2016-05-31T03:07:37.111Z,999.36
2016-05-31T03:08:37.084Z,999.32
2016-05-31T03:09:37.070Z,999.34
2016-05-31T03:10:37.042Z,999.34
2016-05-31T03:11:37.013Z,999.38
2016-05-31T03:12:36.999Z,999.37
2016-05-31T03:13:36.988Z,999.42
2016-05-31T03:14:36.958Z,999.48
2016-05-31T03:15:36.930Z,999.45
2016-05-31T03:16:36.917Z,999.45
2016-05-31T03:17:36.888Z,999.47
2016-05-31T03:18:36.860Z,999.49
2016-05-31T03:19:36.847Z,999.5
2016-05-31T03:20:36.818Z,999.52
2016-05-31T03:21:36.805Z,999.57
2016-05-31T03:22:37.152Z,999.57
2016-05-31T03:23:36.765Z,999.56
2016-05-31T03:24:36.735Z,999.57
2016-05-31T03:25:36.723Z,999.57
2016-05-31T03:26:36.694Z,999.61
2016-05-31T03:27:36.665Z,999.62
2016-05-31T03:28:36.652Z,999.62
2016-05-31T03:29:36.624Z,999.64
2016-05-31T03:30:36.611Z,999.66
2016-05-31T03:31:36.598Z,999.68
2016-05-31T03:32:36.570Z,999.68
2016-05-31T03:33:36.541Z,999.69
2016-05-31T03:34:36.528Z,999.68
2016-05-31T03:35:36.500Z,999.71
2016-05-31T03:36:36.487Z,999.7
2016-05-31T03:37:36.458Z,999.73
2016-05-31T03:38:36.445Z,999.73
2016-05-31T03:39:36.417Z,999.7
2016-05-31T03:40:36.388Z,999.77
2016-05-31T03:41:36.375Z,999.78
2016-05-31T03:42:36.346Z,999.77
2016-05-31T03:43:36.333Z,999.78
2016-05-31T03:44:36.305Z,999.75
2016-05-31T03:45:36.291Z,999.76
2016-05-31T03:46:36.264Z,999.8
2016-05-31T03:47:36.250Z,999.79
2016-05-31T03:48:36.221Z,999.78
2016-05-31T03:49:36.194Z,999.79
2016-05-31T03:50:36.180Z,999.74
2016-05-31T03:51:36.151Z,999.76
2016-05-31T03:52:36.139Z,999.74
2016-05-31T03:53:36.141Z,999.7
2016-05-31T03:54:36.098Z,999.73
2016-05-31T03:55:36.069Z,999.67
2016-05-31T03:56:36.056Z,999.69
2016-05-31T03:57:36.043Z,999.69
2016-05-31T03:58:36.015Z,999.72
2016-05-31T03:59:35.986Z,999.72
2016-05-31T04:00:35.973Z,999.74
2016-05-31T04:01:35.944Z,999.74
2016-05-31T04:02:35.932Z,999.75
2016-05-31T04:03:35.903Z,999.72
2016-05-31T04:04:35.889Z,999.72
2016-05-31T04:05:35.862Z,999.77
2016-05-31T04:06:35.848Z,999.79
2016-05-31T04:07:36.053Z,999.81
2016-05-31T04:08:35.806Z,999.83
2016-05-31T04:09:35.779Z,999.87
2016-05-31T04:10:35.766Z,999.9
2016-05-31T04:11:35.736Z,999.87
2016-05-31T04:12:35.709Z,999.87
2016-05-31T04:13:35.695Z,999.82
2016-05-31T04:14:35.682Z,999.8
2016-05-31T04:15:35.654Z,999.8
2016-05-31T04:16:35.641Z,999.8
2016-05-31T04:17:35.613Z,999.8
2016-05-31T04:18:35.583Z,999.83
2016-05-31T04:19:35.571Z,999.88
2016-05-31T04:20:35.543Z,999.88
2016-05-31T04:21:35.529Z,999.86
2016-05-31T04:22:35.501Z,999.91
2016-05-31T04:23:35.488Z,999.93
2016-05-31T04:24:35.475Z,999.91
2016-05-31T04:25:35.446Z,999.95
2016-05-31T04:26:35.418Z,999.92
2016-05-31T04:27:35.405Z,999.95
2016-05-31T04:28:35.392Z,999.91
2016-05-31T04:29:35.362Z,999.91
2016-05-31T04:30:35.350Z,999.92
2016-05-31T04:31:35.323Z,999.97
2016-05-31T04:32:35.309Z,999.96
2016-05-31T04:33:35.280Z,999.98
2016-05-31T04:34:35.252Z,1000.02
2016-05-31T04:35:35.239Z,1000.04
2016-05-31T04:36:35.210Z,1000.03
2016-05-31T04:37:35.510Z,1000.07
2016-05-31T04:38:35.184Z,1000.08
2016-05-31T04:39:35.156Z,1000.1
2016-05-31T04:40:35.127Z,1000.13
2016-05-31T04:41:35.115Z,1000.12
2016-05-31T04:42:35.102Z,1000.16
2016-05-31T04:43:35.072Z,1000.19
2016-05-31T04:44:35.044Z,1000.18
2016-05-31T04:45:35.031Z,1000.2
2016-05-31T04:46:35.003Z,1000.2
2016-05-31T04:47:34.990Z,1000.17
2016-05-31T04:48:34.961Z,1000.21
2016-05-31T04:49:34.949Z,1000.23
2016-05-31T04:50:34.935Z,1000.24
2016-05-31T04:51:34.907Z,1000.21
2016-05-31T04:52:35.113Z,1000.2
2016-05-31T04:53:35.507Z,1000.28
2016-05-31T04:54:34.852Z,1000.33
2016-05-31T04:55:34.824Z,1000.31
2016-05-31T04:56:34.795Z,1000.35
2016-05-31T04:57:34.782Z,1000.36
2016-05-31T04:58:34.754Z,1000.41
2016-05-31T04:59:34.740Z,1000.37
2016-05-31T05:00:34.713Z,1000.32
2016-05-31T05:01:34.699Z,1000.34
2016-05-31T05:02:34.670Z,1000.35
2016-05-31T05:03:34.659Z,1000.38
2016-05-31T05:04:34.629Z,1000.38
2016-05-31T05:05:34.617Z,1000.36
2016-05-31T05:06:34.587Z,1000.41
2016-05-31T05:07:34.576Z,1000.36
2016-05-31T05:08:34.578Z,1000.4
2016-05-31T05:09:34.533Z,1000.45
2016-05-31T05:10:34.520Z,1000.43
2016-05-31T05:11:34.507Z,1000.47
2016-05-31T05:12:34.479Z,1000.44
2016-05-31T05:13:34.450Z,1000.48
2016-05-31T05:14:34.438Z,1000.46
2016-05-31T05:15:34.409Z,1000.46
2016-05-31T05:16:34.411Z,1000.48
2016-05-31T05:17:34.367Z,1000.47
2016-05-31T05:18:34.354Z,1000.51
2016-05-31T05:19:34.342Z,1000.53
2016-05-31T05:20:34.313Z,1000.55
2016-05-31T05:21:34.300Z,1000.56
2016-05-31T05:22:34.646Z,1000.59
2016-05-31T05:23:34.368Z,1000.59
2016-05-31T05:24:34.230Z,1000.61
2016-05-31T05:25:34.217Z,1000.59
2016-05-31T05:26:34.204Z,1000.64
2016-05-31T05:27:34.176Z,1000.61
2016-05-31T05:28:34.163Z,1000.61
2016-05-31T05:29:34.134Z,1000.63
2016-05-31T05:30:34.121Z,1000.68
2016-05-31T05:31:34.109Z,1000.7
2016-05-31T05:32:34.079Z,1000.69
2016-05-31T05:33:34.067Z,1000.73
2016-05-31T05:34:34.038Z,1000.73
2016-05-31T05:35:34.010Z,1000.74
2016-05-31T05:36:33.997Z,1000.74
2016-05-31T05:37:33.984Z,1000.76
2016-05-31T05:38:34.033Z,1000.73
2016-05-31T05:39:33.942Z,1000.72
2016-05-31T05:40:33.929Z,1000.76
2016-05-31T05:41:33.900Z,1000.75
2016-05-31T05:42:33.889Z,1000.72
2016-05-31T05:43:33.859Z,1000.76
2016-05-31T05:44:33.847Z,1000.74
2016-05-31T05:45:33.817Z,1000.73
2016-05-31T05:46:33.805Z,1000.74
2016-05-31T05:47:33.792Z,1000.75
2016-05-31T05:48:33.763Z,1000.76
2016-05-31T05:49:33.750Z,1000.74
2016-05-31T05:50:33.721Z,1000.73
2016-05-31T05:51:33.709Z,1000.75
2016-05-31T05:52:33.696Z,1000.72
2016-05-31T05:53:33.667Z,1000.71
2016-05-31T05:54:33.655Z,1000.76
2016-05-31T05:55:33.626Z,1000.73
2016-05-31T05:56:33.613Z,1000.76
2016-05-31T05:57:33.593Z,1000.73
2016-05-31T05:58:33.607Z,1000.71
2016-05-31T05:59:33.621Z,1000.7
2016-05-31T06:00:33.618Z,1000.75
2016-05-31T06:01:33.632Z,1000.76
2016-05-31T06:02:33.624Z,1000.75
2016-05-31T06:03:33.621Z,1000.76
2016-05-31T06:04:33.617Z,1000.79
2016-05-31T06:05:33.599Z,1000.82
2016-05-31T06:06:33.595Z,1000.81
2016-05-31T06:07:34.090Z,1000.82
2016-05-31T06:08:33.564Z,1000.81
2016-05-31T06:09:33.556Z,1000.8
2016-05-31T06:10:33.546Z,1000.83
2016-05-31T06:11:33.537Z,1000.81
2016-05-31T06:12:33.526Z,1000.79
2016-05-31T06:13:33.513Z,1000.79
2016-05-31T06:14:33.487Z,1000.82
2016-05-31T06:15:33.491Z,1000.85
2016-05-31T06:16:33.478Z,1000.89
2016-05-31T06:17:33.451Z,1000.95
2016-05-31T06:18:33.454Z,1000.97
2016-05-31T06:19:33.426Z,1000.96
2016-05-31T06:20:33.413Z,1000.97
2016-05-31T06:21:33.416Z,1001.04
2016-05-31T06:22:33.389Z,1000.99
2016-05-31T06:23:33.391Z,1001.03
2016-05-31T06:24:33.377Z,1001
2016-05-31T06:25:33.366Z,1001.01
2016-05-31T06:26:33.352Z,1001.03
2016-05-31T06:27:33.340Z,1001.06
2016-05-31T06:28:33.326Z,1001.09
2016-05-31T06:29:33.329Z,1001.04
2016-05-31T06:30:33.301Z,1001.08
2016-05-31T06:31:33.303Z,1001.05
2016-05-31T06:32:33.306Z,1001.04
2016-05-31T06:33:33.276Z,1001.02
2016-05-31T06:34:33.280Z,1001.04
2016-05-31T06:35:33.267Z,1001.04
2016-05-31T06:36:33.254Z,1001.07
2016-05-31T06:37:33.287Z,1001.09
2016-05-31T06:38:33.245Z,1001.1
2016-05-31T06:39:33.231Z,1001.04
2016-05-31T06:40:33.217Z,1001.07
2016-05-31T06:41:33.220Z,1001.05
2016-05-31T06:42:33.208Z,1001.03
2016-05-31T06:43:33.195Z,1001.08
2016-05-31T06:44:33.197Z,1001.08
2016-05-31T06:45:33.184Z,1001.16
2016-05-31T06:46:33.186Z,1001.12
2016-05-31T06:47:33.175Z,1001.19
2016-05-31T06:48:33.161Z,1001.14
2016-05-31T06:49:33.164Z,1001.12
2016-05-31T06:50:33.152Z,1001.15
2016-05-31T06:51:33.154Z,1001.19
2016-05-31T06:52:33.141Z,1001.19
2016-05-31T06:53:33.143Z,1001.21
2016-05-31T06:54:33.130Z,1001.21
2016-05-31T06:55:33.118Z,1001.24
2016-05-31T06:56:33.121Z,1001.28
2016-05-31T06:57:33.107Z,1001.21
2016-05-31T06:58:33.110Z,1001.22
2016-05-31T06:59:33.097Z,1001.27
2016-05-31T07:00:33.100Z,1001.28
2016-05-31T07:01:33.087Z,1001.27
2016-05-31T07:02:33.090Z,1001.26
2016-05-31T07:03:33.076Z,1001.26
2016-05-31T07:04:33.079Z,1001.23
2016-05-31T07:05:33.067Z,1001.27
2016-05-31T07:06:33.069Z,1001.26
2016-05-31T07:07:33.056Z,1001.26
2016-05-31T07:08:33.059Z,1001.25
2016-05-31T07:09:33.046Z,1001.25
2016-05-31T07:10:33.064Z,1001.25
2016-05-31T07:11:33.051Z,1001.26
2016-05-31T07:12:33.053Z,1001.29
2016-05-31T07:13:33.042Z,1001.27
2016-05-31T07:14:33.028Z,1001.28
2016-05-31T07:15:33.031Z,1001.32
2016-05-31T07:16:33.033Z,1001.31
2016-05-31T07:17:33.020Z,1001.34
2016-05-31T07:18:33.022Z,1001.32
2016-05-31T07:19:33.011Z,1001.35
2016-05-31T07:20:33.013Z,1001.38
2016-05-31T07:21:33.016Z,1001.35
2016-05-31T07:22:33.002Z,1001.39
2016-05-31T07:23:33.006Z,1001.42
2016-05-31T07:24:32.993Z,1001.4
2016-05-31T07:25:33.010Z,1001.42
2016-05-31T07:26:32.998Z,1001.47
2016-05-31T07:27:32.985Z,1001.5
2016-05-31T07:28:32.988Z,1001.37
2016-05-31T07:29:32.990Z,1001.44
2016-05-31T07:30:32.993Z,1001.5
2016-05-31T07:31:32.980Z,1001.46
2016-05-31T07:32:32.999Z,1001.54
2016-05-31T07:33:32.970Z,1001.72
2016-05-31T07:34:32.957Z,1001.73
2016-05-31T07:35:32.959Z,1001.67
2016-05-31T07:36:32.962Z,1001.55
2016-05-31T07:37:33.199Z,1001.63
2016-05-31T07:38:32.952Z,1001.71
2016-05-31T07:39:32.939Z,1001.66
2016-05-31T07:40:32.957Z,1001.64
2016-05-31T07:41:32.929Z,1001.61
2016-05-31T07:42:32.931Z,1001.65
2016-05-31T07:43:32.919Z,1001.78
2016-05-31T07:44:32.921Z,1001.81
2016-05-31T07:45:32.909Z,1001.79
2016-05-31T07:46:32.912Z,1001.85
2016-05-31T07:47:32.898Z,1001.82
2016-05-31T07:48:32.885Z,1001.75
2016-05-31T07:49:32.888Z,1001.75
2016-05-31T07:50:32.875Z,1001.85
2016-05-31T07:51:32.878Z,1001.88
2016-05-31T07:52:33.396Z,1001.9
2016-05-31T07:53:32.852Z,1001.76
2016-05-31T07:54:32.854Z,1001.73
2016-05-31T07:55:32.858Z,1001.73
2016-05-31T07:56:32.844Z,1001.74
2016-05-31T07:57:32.832Z,1001.78
2016-05-31T07:58:32.834Z,1001.85
2016-05-31T07:59:32.821Z,1001.85
2016-05-31T08:00:32.808Z,1001.86
2016-05-31T08:01:32.811Z,1001.91
2016-05-31T08:02:32.798Z,1001.93
2016-05-31T08:03:32.800Z,1001.9
2016-05-31T08:04:32.788Z,1001.98
2016-05-31T08:05:32.775Z,1001.92
2016-05-31T08:06:32.762Z,1002.01
2016-05-31T08:07:32.764Z,1001.9
2016-05-31T08:08:32.751Z,1001.88
2016-05-31T08:09:32.738Z,1002.06
2016-05-31T08:10:32.742Z,1002.08
2016-05-31T08:11:32.729Z,1001.91
2016-05-31T08:12:32.715Z,1001.9
2016-05-31T08:13:32.717Z,1001.87
2016-05-31T08:14:32.706Z,1001.87
2016-05-31T08:15:32.708Z,1001.85
2016-05-31T08:16:32.679Z,1001.9
2016-05-31T08:17:32.681Z,1001.93
2016-05-31T08:18:32.669Z,1001.93
2016-05-31T08:19:32.655Z,1001.93
2016-05-31T08:20:32.643Z,1001.92
2016-05-31T08:21:32.646Z,1001.96
2016-05-31T08:22:32.633Z,1001.99
2016-05-31T08:23:32.932Z,1001.98
2016-05-31T08:24:32.607Z,1002
2016-05-31T08:25:32.594Z,1002.02
2016-05-31T08:26:32.581Z,1002.06
2016-05-31T08:27:32.583Z,1002.05
2016-05-31T08:28:32.571Z,1002.05
2016-05-31T08:29:32.557Z,1002.15
2016-05-31T08:30:32.546Z,1002.15
2016-05-31T08:31:32.532Z,1002.12
2016-05-31T08:32:32.519Z,1002.13
2016-05-31T08:33:32.521Z,1002.08
2016-05-31T08:34:32.509Z,1002.08
2016-05-31T08:35:32.496Z,1002.02
2016-05-31T08:36:32.482Z,1002.02
2016-05-31T08:37:32.486Z,1002.02
2016-05-31T08:38:32.473Z,1002.14
2016-05-31T08:39:32.460Z,1002.01
2016-05-31T08:40:33.681Z,1002.04
2016-05-31T08:41:33.731Z,1001.94
2016-05-31T08:42:33.687Z,1002.08
2016-05-31T08:43:33.689Z,1002.07
2016-05-31T08:44:32.426Z,1001.97
2016-05-31T08:45:33.617Z,1001.99
2016-05-31T08:46:33.697Z,1002.05
2016-05-31T08:47:33.669Z,1002.03
2016-05-31T08:48:33.750Z,1002.04
2016-05-31T08:49:33.675Z,1002.09
2016-05-31T08:50:33.817Z,1002.04
2016-05-31T08:51:33.445Z,1002.06
2016-05-31T08:52:33.713Z,1001.99
2016-05-31T08:53:33.716Z,1002.04
2016-05-31T08:54:33.750Z,1002.06
2016-05-31T08:55:33.738Z,1002.02
2016-05-31T08:56:33.771Z,1002.03
2016-05-31T08:57:33.493Z,1002.11
2016-05-31T08:58:32.308Z,1002.07
2016-05-31T08:59:32.310Z,1002.12
2016-05-31T09:00:32.297Z,1002.12
2016-05-31T09:01:32.285Z,1002.11
2016-05-31T09:02:32.271Z,1002.09
2016-05-31T09:03:32.259Z,1002.13
2016-05-31T09:04:33.465Z,1002.13
2016-05-31T09:05:33.420Z,1002.16
2016-05-31T09:06:33.563Z,1002.1
2016-05-31T09:07:32.223Z,1002.11
2016-05-31T09:08:32.773Z,1002.13
2016-05-31T09:09:32.196Z,1002.14
2016-05-31T09:10:32.184Z,1002.21
2016-05-31T09:11:32.170Z,1002.17
2016-05-31T09:12:33.611Z,1002.23
2016-05-31T09:13:33.161Z,1002.23
2016-05-31T09:14:33.554Z,1002.24
2016-05-31T09:15:33.525Z,1002.17
2016-05-31T09:16:33.387Z,1002.24
2016-05-31T09:17:33.483Z,1002.32
2016-05-31T09:18:32.096Z,1002.32
2016-05-31T09:19:32.083Z,1002.33
2016-05-31T09:20:32.070Z,1002.32
2016-05-31T09:21:32.057Z,1002.33
2016-05-31T09:22:32.029Z,1002.38
2016-05-31T09:23:32.015Z,1002.38
2016-05-31T09:24:32.003Z,1002.41
2016-05-31T09:25:31.989Z,1002.38
2016-05-31T09:26:31.992Z,1002.37
2016-05-31T09:27:31.963Z,1002.39
2016-05-31T09:28:31.952Z,1002.4
2016-05-31T09:29:31.938Z,1002.4
2016-05-31T09:30:31.925Z,1002.42
2016-05-31T09:31:31.912Z,1002.43
2016-05-31T09:32:31.900Z,1002.42
2016-05-31T09:33:31.885Z,1002.43
2016-05-31T09:34:31.874Z,1002.42
2016-05-31T09:35:31.860Z,1002.43
2016-05-31T09:36:31.847Z,1002.49
2016-05-31T09:37:31.835Z,1002.47
2016-05-31T09:38:32.041Z,1002.55
2016-05-31T09:39:31.809Z,1002.48
2016-05-31T09:40:31.796Z,1002.51
2016-05-31T09:41:31.782Z,1002.54
2016-05-31T09:42:31.770Z,1002.48
2016-05-31T09:43:31.756Z,1002.51
2016-05-31T09:44:31.759Z,1002.54
2016-05-31T09:45:31.731Z,1002.56
2016-05-31T09:46:31.734Z,1002.58
2016-05-31T09:47:31.705Z,1002.59
2016-05-31T09:48:31.692Z,1002.6
2016-05-31T09:49:31.679Z,1002.62
2016-05-31T09:50:31.667Z,1002.66
2016-05-31T09:51:31.669Z,1002.64
2016-05-31T09:52:31.844Z,1002.63
2016-05-31T09:53:31.627Z,1002.67
2016-05-31T09:54:31.614Z,1002.72
2016-05-31T09:55:31.617Z,1002.69
2016-05-31T09:56:31.589Z,1002.69
2016-05-31T09:57:31.575Z,1002.72
2016-05-31T09:58:31.563Z,1002.71
2016-05-31T09:59:31.549Z,1002.72
2016-05-31T10:00:31.553Z,1002.74
2016-05-31T10:01:31.540Z,1002.69
2016-05-31T10:02:31.527Z,1002.7
2016-05-31T10:03:31.513Z,1002.77
2016-05-31T10:04:31.501Z,1002.82
2016-05-31T10:05:31.487Z,1002.8
2016-05-31T10:06:31.475Z,1002.82
2016-05-31T10:07:31.462Z,1002.81
2016-05-31T10:08:31.449Z,1002.85
2016-05-31T10:09:31.451Z,1002.85
2016-05-31T10:10:31.440Z,1002.87
2016-05-31T10:11:31.426Z,1002.92
2016-05-31T10:12:31.413Z,1002.94
2016-05-31T10:13:31.400Z,1002.97
2016-05-31T10:14:31.387Z,1002.96
2016-05-31T10:15:31.373Z,1002.97
2016-05-31T10:16:31.362Z,1002.99
2016-05-31T10:17:31.348Z,1002.98
2016-05-31T10:18:31.336Z,1003.03
2016-05-31T10:19:31.322Z,1003.02
2016-05-31T10:20:31.310Z,1003.07
2016-05-31T10:21:31.312Z,1003.05
2016-05-31T10:22:31.939Z,1003.08
2016-05-31T10:23:31.287Z,1003.11
2016-05-31T10:24:31.273Z,1003.08
2016-05-31T10:25:31.260Z,1003.08
2016-05-31T10:26:31.247Z,1003.1
2016-05-31T10:27:31.235Z,1003.12
2016-05-31T10:28:31.222Z,1003.04
2016-05-31T10:29:31.208Z,1003.08
2016-05-31T10:30:31.196Z,1003.08
2016-05-31T10:31:31.183Z,1003.15
2016-05-31T10:32:31.169Z,1003.13
2016-05-31T10:33:31.157Z,1003.17
2016-05-31T10:34:31.144Z,1003.15
2016-05-31T10:35:31.131Z,1003.18
2016-05-31T10:36:31.118Z,1003.13
2016-05-31T10:37:31.105Z,1003.18
2016-05-31T10:38:31.093Z,1003.2
2016-05-31T10:39:31.095Z,1003.19
2016-05-31T10:40:31.082Z,1003.22
2016-05-31T10:41:31.069Z,1003.18
2016-05-31T10:42:31.056Z,1003.24
2016-05-31T10:43:31.043Z,1003.27
2016-05-31T10:44:31.031Z,1003.28
2016-05-31T10:45:31.017Z,1003.25
2016-05-31T10:46:31.004Z,1003.25
2016-05-31T10:47:30.992Z,1003.28
2016-05-31T10:48:30.978Z,1003.3
2016-05-31T10:49:30.966Z,1003.3
2016-05-31T10:50:30.953Z,1003.32
2016-05-31T10:51:30.940Z,1003.29
2016-05-31T10:52:31.239Z,1003.3
2016-05-31T10:53:30.913Z,1003.34
2016-05-31T10:54:30.901Z,1003.32
2016-05-31T10:55:30.903Z,1003.35
2016-05-31T10:56:30.891Z,1003.35
2016-05-31T10:57:30.878Z,1003.33
2016-05-31T10:58:30.864Z,1003.32
2016-05-31T10:59:30.852Z,1003.37
2016-05-31T11:00:30.839Z,1003.35
2016-05-31T11:01:30.826Z,1003.36
2016-05-31T11:02:30.813Z,1003.38
2016-05-31T11:03:30.816Z,1003.38
2016-05-31T11:04:30.787Z,1003.38
2016-05-31T11:05:30.790Z,1003.38
2016-05-31T11:06:30.777Z,1003.37
2016-05-31T11:07:31.326Z,1003.39
2016-05-31T11:08:31.158Z,1003.4
2016-05-31T11:09:30.738Z,1003.38
2016-05-31T11:10:30.740Z,1003.4
2016-05-31T11:11:30.712Z,1003.39
2016-05-31T11:12:30.715Z,1003.4
2016-05-31T11:13:30.701Z,1003.38
2016-05-31T11:14:30.674Z,1003.39
2016-05-31T11:15:30.676Z,1003.38
2016-05-31T11:16:30.663Z,1003.4
2016-05-31T11:17:30.651Z,1003.47
2016-05-31T11:18:30.637Z,1003.42
2016-05-31T11:19:30.625Z,1003.45
2016-05-31T11:20:30.611Z,1003.44
2016-05-31T11:21:30.598Z,1003.46
2016-05-31T11:22:30.586Z,1003.45
2016-05-31T11:23:30.589Z,1003.46
2016-05-31T11:24:30.559Z,1003.48
2016-05-31T11:25:30.547Z,1003.5
2016-05-31T11:26:30.534Z,1003.49
2016-05-31T11:27:30.521Z,1003.52
2016-05-31T11:28:30.508Z,1003.52
2016-05-31T11:29:30.495Z,1003.53
2016-05-31T11:30:30.497Z,1003.58
2016-05-31T11:31:30.485Z,1003.63
2016-05-31T11:32:30.471Z,1003.59
2016-05-31T11:33:30.459Z,1003.56
2016-05-31T11:34:30.446Z,1003.6
2016-05-31T11:35:30.433Z,1003.61
2016-05-31T11:36:30.420Z,1003.61
2016-05-31T11:37:30.407Z,1003.58
2016-05-31T11:38:30.393Z,1003.61
2016-05-31T11:39:30.381Z,1003.58
2016-05-31T11:40:30.369Z,1003.64
2016-05-31T11:41:30.371Z,1003.61
2016-05-31T11:42:30.357Z,1003.6
2016-05-31T11:43:30.346Z,1003.62
2016-05-31T11:44:30.332Z,1003.6
2016-05-31T11:45:30.320Z,1003.6
2016-05-31T11:46:30.307Z,1003.6
2016-05-31T11:47:30.293Z,1003.55
2016-05-31T11:48:30.280Z,1003.55
2016-05-31T11:49:30.267Z,1003.58
2016-05-31T11:50:30.254Z,1003.58
2016-05-31T11:51:30.242Z,1003.62
2016-05-31T11:52:30.792Z,1003.61
2016-05-31T11:53:30.231Z,1003.62
2016-05-31T11:54:30.219Z,1003.58
2016-05-31T11:55:30.205Z,1003.63
2016-05-31T11:56:30.192Z,1003.65
2016-05-31T11:57:30.180Z,1003.64
2016-05-31T11:58:30.167Z,1003.66
2016-05-31T11:59:30.153Z,1003.66
2016-05-31T12:00:30.141Z,1003.69
2016-05-31T12:01:30.143Z,1003.64
2016-05-31T12:02:30.115Z,1003.67
2016-05-31T12:03:30.103Z,1003.65
2016-05-31T12:04:30.089Z,1003.68
2016-05-31T12:05:30.077Z,1003.65
2016-05-31T12:06:30.079Z,1003.66
2016-05-31T12:07:30.065Z,1003.65
2016-05-31T12:08:30.038Z,1003.65
2016-05-31T12:09:30.025Z,1003.65
2016-05-31T12:10:30.012Z,1003.66
2016-05-31T12:11:29.999Z,1003.68
2016-05-31T12:12:30.001Z,1003.65
2016-05-31T12:13:29.988Z,1003.68
2016-05-31T12:14:29.976Z,1003.64
2016-05-31T12:15:29.962Z,1003.69
2016-05-31T12:16:29.934Z,1003.69